sensor_id;sensor_type;location;lat;lon;timestamp;P1;durP1;ratioP1;P2;durP2;ratioP2
17173;SDS011;8702;48.130;-1.696;2023-05-10T00:01:16;12.20;;;3.40;;
17173;SDS011;8702;48.130;-1.696;2023-05-10T00:03:46;12.60;;;3.83;;
17173;SDS011;8702;48.130;-1.696;2023-05-10T00:06:13;14.27;;;2.87;;
17173;SDS011;8702;48.130;-1.696;2023-05-10T00:08:40;17.50;;;4.03;;
17173;SDS011;8702;48.130;-1.696;2023-05-10T00:11:07;15.50;;;3.90;;
17173;SDS011;8702;48.130;-1.696;2023-05-10T00:13:35;14.53;;;4.00;;
17173;SDS011;8702;48.130;-1.696;2023-05-10T00:16:03;13.50;;;3.87;;
17173;SDS011;8702;48.130;-1.696;2023-05-10T00:18:31;15.57;;;3.57;;
17173;SDS011;8702;48.130;-1.696;2023-05-10T00:20:58;13.07;;;3.63;;
17173;SDS011;8702;48.130;-1.696;2023-05-10T00:23:25;16.60;;;4.57;;
17173;SDS011;8702;48.130;-1.696;2023-05-10T00:25:52;12.30;;;3.30;;
17173;SDS011;8702;48.130;-1.696;2023-05-10T00:28:19;13.90;;;3.50;;
17173;SDS011;8702;48.130;-1.696;2023-05-10T00:30:47;15.57;;;3.80;;
17173;SDS011;8702;48.130;-1.696;2023-05-10T00:33:14;13.60;;;3.73;;
17173;SDS011;8702;48.130;-1.696;2023-05-10T00:35:41;14.30;;;4.17;;
17173;SDS011;8702;48.130;-1.696;2023-05-10T00:38:14;13.80;;;3.53;;
17173;SDS011;8702;48.130;-1.696;2023-05-10T00:40:41;12.17;;;3.83;;
17173;SDS011;8702;48.130;-1.696;2023-05-10T00:43:10;15.03;;;3.60;;
17173;SDS011;8702;48.130;-1.696;2023-05-10T00:45:37;13.00;;;3.70;;
17173;SDS011;8702;48.130;-1.696;2023-05-10T00:48:08;12.97;;;3.53;;
17173;SDS011;8702;48.130;-1.696;2023-05-10T00:50:35;16.10;;;4.23;;
17173;SDS011;8702;48.130;-1.696;2023-05-10T00:53:04;15.87;;;4.40;;
17173;SDS011;8702;48.130;-1.696;2023-05-10T00:55:31;14.10;;;3.70;;
17173;SDS011;8702;48.130;-1.696;2023-05-10T00:57:59;16.90;;;3.90;;
17173;SDS011;8702;48.130;-1.696;2023-05-10T01:00:26;19.57;;;4.13;;
17173;SDS011;8702;48.130;-1.696;2023-05-10T01:02:55;18.33;;;4.20;;
17173;SDS011;8702;48.130;-1.696;2023-05-10T01:05:23;16.47;;;4.00;;
17173;SDS011;8702;48.130;-1.696;2023-05-10T01:07:52;20.50;;;4.30;;
17173;SDS011;8702;48.130;-1.696;2023-05-10T01:10:19;16.60;;;3.90;;
17173;SDS011;8702;48.130;-1.696;2023-05-10T01:12:46;10.93;;;3.40;;
17173;SDS011;8702;48.130;-1.696;2023-05-10T01:15:14;15.00;;;3.70;;
17173;SDS011;8702;48.130;-1.696;2023-05-10T01:17:44;15.90;;;4.47;;
17173;SDS011;8702;48.130;-1.696;2023-05-10T01:20:17;18.43;;;4.30;;
17173;SDS011;8702;48.130;-1.696;2023-05-10T01:26:11;14.30;;;4.20;;
17173;SDS011;8702;48.130;-1.696;2023-05-10T01:29:06;15.40;;;4.07;;
17173;SDS011;8702;48.130;-1.696;2023-05-10T01:34:59;14.13;;;4.00;;
17173;SDS011;8702;48.130;-1.696;2023-05-10T01:37:31;15.43;;;3.93;;
17173;SDS011;8702;48.130;-1.696;2023-05-10T01:40:05;16.07;;;4.17;;
17173;SDS011;8702;48.130;-1.696;2023-05-10T01:42:39;16.53;;;4.57;;
17173;SDS011;8702;48.130;-1.696;2023-05-10T01:45:14;17.97;;;4.17;;
17173;SDS011;8702;48.130;-1.696;2023-05-10T01:47:58;17.37;;;4.57;;
17173;SDS011;8702;48.130;-1.696;2023-05-10T01:50:32;16.53;;;4.30;;
17173;SDS011;8702;48.130;-1.696;2023-05-10T01:53:02;16.37;;;4.17;;
17173;SDS011;8702;48.130;-1.696;2023-05-10T01:55:34;13.00;;;3.93;;
17173;SDS011;8702;48.130;-1.696;2023-05-10T01:58:10;19.47;;;4.80;;
17173;SDS011;8702;48.130;-1.696;2023-05-10T02:00:40;18.10;;;4.37;;
17173;SDS011;8702;48.130;-1.696;2023-05-10T02:03:10;18.90;;;4.40;;
17173;SDS011;8702;48.130;-1.696;2023-05-10T02:05:41;15.07;;;4.10;;
17173;SDS011;8702;48.130;-1.696;2023-05-10T02:08:10;18.93;;;4.57;;
17173;SDS011;8702;48.130;-1.696;2023-05-10T02:10:38;20.83;;;4.50;;
17173;SDS011;8702;48.130;-1.696;2023-05-10T02:13:06;18.13;;;4.50;;
17173;SDS011;8702;48.130;-1.696;2023-05-10T02:15:34;17.50;;;4.63;;
17173;SDS011;8702;48.130;-1.696;2023-05-10T02:18:03;18.53;;;4.77;;
17173;SDS011;8702;48.130;-1.696;2023-05-10T02:20:47;16.93;;;4.63;;
17173;SDS011;8702;48.130;-1.696;2023-05-10T02:23:14;15.70;;;3.80;;
17173;SDS011;8702;48.130;-1.696;2023-05-10T02:25:44;19.30;;;4.20;;
17173;SDS011;8702;48.130;-1.696;2023-05-10T02:28:12;16.33;;;4.40;;
17173;SDS011;8702;48.130;-1.696;2023-05-10T02:30:41;16.53;;;4.27;;
17173;SDS011;8702;48.130;-1.696;2023-05-10T02:33:12;14.97;;;4.30;;
17173;SDS011;8702;48.130;-1.696;2023-05-10T02:35:41;17.50;;;4.60;;
17173;SDS011;8702;48.130;-1.696;2023-05-10T02:38:09;18.70;;;5.00;;
17173;SDS011;8702;48.130;-1.696;2023-05-10T02:40:38;22.90;;;4.97;;
17173;SDS011;8702;48.130;-1.696;2023-05-10T02:43:09;16.37;;;4.13;;
17173;SDS011;8702;48.130;-1.696;2023-05-10T02:45:39;22.60;;;5.13;;
17173;SDS011;8702;48.130;-1.696;2023-05-10T02:48:07;20.17;;;5.37;;
17173;SDS011;8702;48.130;-1.696;2023-05-10T02:50:34;14.37;;;4.20;;
17173;SDS011;8702;48.130;-1.696;2023-05-10T02:53:06;18.10;;;4.57;;
17173;SDS011;8702;48.130;-1.696;2023-05-10T02:55:37;16.27;;;4.57;;
17173;SDS011;8702;48.130;-1.696;2023-05-10T02:58:07;18.27;;;4.70;;
17173;SDS011;8702;48.130;-1.696;2023-05-10T03:00:34;19.03;;;4.73;;
17173;SDS011;8702;48.130;-1.696;2023-05-10T03:03:01;23.93;;;5.80;;
17173;SDS011;8702;48.130;-1.696;2023-05-10T03:05:28;17.03;;;4.93;;
17173;SDS011;8702;48.130;-1.696;2023-05-10T03:07:55;21.40;;;5.53;;
17173;SDS011;8702;48.130;-1.696;2023-05-10T03:10:26;21.03;;;5.00;;
17173;SDS011;8702;48.130;-1.696;2023-05-10T03:12:59;22.47;;;5.10;;
17173;SDS011;8702;48.130;-1.696;2023-05-10T03:15:35;22.47;;;5.17;;
17173;SDS011;8702;48.130;-1.696;2023-05-10T03:18:14;18.97;;;5.20;;
17173;SDS011;8702;48.130;-1.696;2023-05-10T03:20:46;21.63;;;5.20;;
17173;SDS011;8702;48.130;-1.696;2023-05-10T03:23:19;24.07;;;5.70;;
17173;SDS011;8702;48.130;-1.696;2023-05-10T03:25:50;23.47;;;5.23;;
17173;SDS011;8702;48.130;-1.696;2023-05-10T03:28:18;18.83;;;5.00;;
17173;SDS011;8702;48.130;-1.696;2023-05-10T03:30:48;19.70;;;4.87;;
17173;SDS011;8702;48.130;-1.696;2023-05-10T03:33:16;21.33;;;5.10;;
17173;SDS011;8702;48.130;-1.696;2023-05-10T03:35:46;21.80;;;5.07;;
17173;SDS011;8702;48.130;-1.696;2023-05-10T03:38:13;21.77;;;5.33;;
17173;SDS011;8702;48.130;-1.696;2023-05-10T03:40:41;21.13;;;5.20;;
17173;SDS011;8702;48.130;-1.696;2023-05-10T03:43:09;21.00;;;4.73;;
17173;SDS011;8702;48.130;-1.696;2023-05-10T03:45:39;22.67;;;5.83;;
17173;SDS011;8702;48.130;-1.696;2023-05-10T03:48:07;21.70;;;4.93;;
17173;SDS011;8702;48.130;-1.696;2023-05-10T03:50:34;18.43;;;5.03;;
17173;SDS011;8702;48.130;-1.696;2023-05-10T03:53:01;18.30;;;4.50;;
17173;SDS011;8702;48.130;-1.696;2023-05-10T03:55:28;17.43;;;4.77;;
17173;SDS011;8702;48.130;-1.696;2023-05-10T03:57:59;19.20;;;4.60;;
17173;SDS011;8702;48.130;-1.696;2023-05-10T04:00:27;21.30;;;5.40;;
17173;SDS011;8702;48.130;-1.696;2023-05-10T04:02:55;25.70;;;6.07;;
17173;SDS011;8702;48.130;-1.696;2023-05-10T04:05:22;16.93;;;4.73;;
17173;SDS011;8702;48.130;-1.696;2023-05-10T04:07:48;21.57;;;5.13;;
17173;SDS011;8702;48.130;-1.696;2023-05-10T04:10:16;25.37;;;5.80;;
17173;SDS011;8702;48.130;-1.696;2023-05-10T04:12:43;20.27;;;5.20;;
17173;SDS011;8702;48.130;-1.696;2023-05-10T04:15:10;16.70;;;5.10;;
17173;SDS011;8702;48.130;-1.696;2023-05-10T04:17:40;18.67;;;4.67;;
17173;SDS011;8702;48.130;-1.696;2023-05-10T04:20:10;20.77;;;4.80;;
17173;SDS011;8702;48.130;-1.696;2023-05-10T04:22:37;19.57;;;5.00;;
17173;SDS011;8702;48.130;-1.696;2023-05-10T04:25:05;18.07;;;4.57;;
17173;SDS011;8702;48.130;-1.696;2023-05-10T04:27:32;16.70;;;4.87;;
17173;SDS011;8702;48.130;-1.696;2023-05-10T04:29:59;16.30;;;4.67;;
17173;SDS011;8702;48.130;-1.696;2023-05-10T04:32:26;21.87;;;4.97;;
17173;SDS011;8702;48.130;-1.696;2023-05-10T04:34:54;15.00;;;3.97;;
17173;SDS011;8702;48.130;-1.696;2023-05-10T04:37:24;16.27;;;4.27;;
17173;SDS011;8702;48.130;-1.696;2023-05-10T04:39:51;16.87;;;4.77;;
17173;SDS011;8702;48.130;-1.696;2023-05-10T04:42:18;16.07;;;4.33;;
17173;SDS011;8702;48.130;-1.696;2023-05-10T04:44:45;16.97;;;4.07;;
17173;SDS011;8702;48.130;-1.696;2023-05-10T04:47:11;13.87;;;3.87;;
17173;SDS011;8702;48.130;-1.696;2023-05-10T04:49:38;23.53;;;5.30;;
17173;SDS011;8702;48.130;-1.696;2023-05-10T04:52:07;15.73;;;4.53;;
17173;SDS011;8702;48.130;-1.696;2023-05-10T04:54:33;16.00;;;4.97;;
17173;SDS011;8702;48.130;-1.696;2023-05-10T04:57:00;18.10;;;5.00;;
17173;SDS011;8702;48.130;-1.696;2023-05-10T04:59:27;20.57;;;4.93;;
17173;SDS011;8702;48.130;-1.696;2023-05-10T05:01:54;16.50;;;5.13;;
17173;SDS011;8702;48.130;-1.696;2023-05-10T05:04:21;22.73;;;4.70;;
17173;SDS011;8702;48.130;-1.696;2023-05-10T05:06:49;22.07;;;4.53;;
17173;SDS011;8702;48.130;-1.696;2023-05-10T05:09:17;18.40;;;5.17;;
17173;SDS011;8702;48.130;-1.696;2023-05-10T05:11:44;20.57;;;5.00;;
17173;SDS011;8702;48.130;-1.696;2023-05-10T05:14:13;19.97;;;5.13;;
17173;SDS011;8702;48.130;-1.696;2023-05-10T05:16:39;18.07;;;5.10;;
17173;SDS011;8702;48.130;-1.696;2023-05-10T05:19:06;18.27;;;4.77;;
17173;SDS011;8702;48.130;-1.696;2023-05-10T05:21:33;19.27;;;5.40;;
17173;SDS011;8702;48.130;-1.696;2023-05-10T05:24:00;20.43;;;5.30;;
17173;SDS011;8702;48.130;-1.696;2023-05-10T05:26:28;22.70;;;5.20;;
17173;SDS011;8702;48.130;-1.696;2023-05-10T05:28:55;17.80;;;4.57;;
17173;SDS011;8702;48.130;-1.696;2023-05-10T05:31:22;24.00;;;5.47;;
17173;SDS011;8702;48.130;-1.696;2023-05-10T05:33:49;20.33;;;5.17;;
17173;SDS011;8702;48.130;-1.696;2023-05-10T05:36:17;20.87;;;5.40;;
17173;SDS011;8702;48.130;-1.696;2023-05-10T05:38:44;21.40;;;5.23;;
17173;SDS011;8702;48.130;-1.696;2023-05-10T05:41:11;15.63;;;4.83;;
17173;SDS011;8702;48.130;-1.696;2023-05-10T05:43:39;20.70;;;5.37;;
17173;SDS011;8702;48.130;-1.696;2023-05-10T05:46:06;21.23;;;5.40;;
17173;SDS011;8702;48.130;-1.696;2023-05-10T05:48:33;21.57;;;4.87;;
17173;SDS011;8702;48.130;-1.696;2023-05-10T05:51:00;21.37;;;4.97;;
17173;SDS011;8702;48.130;-1.696;2023-05-10T05:53:27;21.80;;;5.23;;
17173;SDS011;8702;48.130;-1.696;2023-05-10T05:55:54;16.27;;;4.50;;
17173;SDS011;8702;48.130;-1.696;2023-05-10T05:58:22;18.77;;;5.20;;
17173;SDS011;8702;48.130;-1.696;2023-05-10T06:00:51;19.30;;;5.67;;
17173;SDS011;8702;48.130;-1.696;2023-05-10T06:03:18;17.37;;;4.93;;
17173;SDS011;8702;48.130;-1.696;2023-05-10T06:05:45;22.73;;;5.77;;
17173;SDS011;8702;48.130;-1.696;2023-05-10T06:08:12;17.83;;;4.83;;
17173;SDS011;8702;48.130;-1.696;2023-05-10T06:10:39;22.77;;;5.57;;
17173;SDS011;8702;48.130;-1.696;2023-05-10T06:13:06;19.37;;;5.13;;
17173;SDS011;8702;48.130;-1.696;2023-05-10T06:15:33;16.67;;;4.57;;
17173;SDS011;8702;48.130;-1.696;2023-05-10T06:18:01;22.33;;;5.20;;
17173;SDS011;8702;48.130;-1.696;2023-05-10T06:20:28;16.90;;;4.30;;
17173;SDS011;8702;48.130;-1.696;2023-05-10T06:22:56;16.23;;;4.87;;
17173;SDS011;8702;48.130;-1.696;2023-05-10T06:25:23;19.70;;;5.00;;
17173;SDS011;8702;48.130;-1.696;2023-05-10T06:27:50;20.93;;;4.80;;
17173;SDS011;8702;48.130;-1.696;2023-05-10T06:30:22;18.10;;;4.60;;
17173;SDS011;8702;48.130;-1.696;2023-05-10T06:32:52;15.50;;;4.60;;
17173;SDS011;8702;48.130;-1.696;2023-05-10T06:35:21;18.00;;;5.00;;
17173;SDS011;8702;48.130;-1.696;2023-05-10T06:37:48;20.50;;;5.43;;
17173;SDS011;8702;48.130;-1.696;2023-05-10T06:40:15;23.23;;;5.53;;
17173;SDS011;8702;48.130;-1.696;2023-05-10T06:42:42;16.67;;;4.90;;
17173;SDS011;8702;48.130;-1.696;2023-05-10T06:45:10;19.67;;;4.73;;
17173;SDS011;8702;48.130;-1.696;2023-05-10T06:47:37;18.90;;;4.33;;
17173;SDS011;8702;48.130;-1.696;2023-05-10T06:50:05;13.23;;;4.27;;
17173;SDS011;8702;48.130;-1.696;2023-05-10T06:52:34;18.10;;;4.77;;
17173;SDS011;8702;48.130;-1.696;2023-05-10T06:55:01;20.57;;;4.60;;
17173;SDS011;8702;48.130;-1.696;2023-05-10T06:57:28;18.00;;;4.77;;
17173;SDS011;8702;48.130;-1.696;2023-05-10T06:59:55;16.57;;;4.53;;
17173;SDS011;8702;48.130;-1.696;2023-05-10T07:02:22;17.30;;;4.73;;
17173;SDS011;8702;48.130;-1.696;2023-05-10T07:04:49;14.73;;;4.60;;
17173;SDS011;8702;48.130;-1.696;2023-05-10T07:07:17;17.50;;;4.90;;
17173;SDS011;8702;48.130;-1.696;2023-05-10T07:09:45;16.00;;;4.17;;
17173;SDS011;8702;48.130;-1.696;2023-05-10T07:12:12;23.03;;;4.83;;
17173;SDS011;8702;48.130;-1.696;2023-05-10T07:14:39;20.20;;;4.80;;
17173;SDS011;8702;48.130;-1.696;2023-05-10T07:17:06;14.83;;;4.17;;
17173;SDS011;8702;48.130;-1.696;2023-05-10T07:19:33;20.70;;;5.23;;
17173;SDS011;8702;48.130;-1.696;2023-05-10T07:22:00;22.23;;;5.00;;
17173;SDS011;8702;48.130;-1.696;2023-05-10T07:24:27;21.40;;;4.60;;
17173;SDS011;8702;48.130;-1.696;2023-05-10T07:26:56;21.03;;;5.03;;
17173;SDS011;8702;48.130;-1.696;2023-05-10T07:29:23;20.77;;;4.70;;
17173;SDS011;8702;48.130;-1.696;2023-05-10T07:31:51;14.27;;;4.20;;
17173;SDS011;8702;48.130;-1.696;2023-05-10T07:34:18;19.70;;;4.63;;
17173;SDS011;8702;48.130;-1.696;2023-05-10T07:36:45;20.37;;;4.87;;
17173;SDS011;8702;48.130;-1.696;2023-05-10T07:39:12;23.77;;;5.27;;
17173;SDS011;8702;48.130;-1.696;2023-05-10T07:41:39;17.10;;;4.40;;
17173;SDS011;8702;48.130;-1.696;2023-05-10T07:44:07;15.50;;;4.53;;
17173;SDS011;8702;48.130;-1.696;2023-05-10T07:46:34;16.87;;;4.97;;
17173;SDS011;8702;48.130;-1.696;2023-05-10T07:49:01;18.20;;;4.57;;
17173;SDS011;8702;48.130;-1.696;2023-05-10T07:51:28;13.47;;;3.67;;
17173;SDS011;8702;48.130;-1.696;2023-05-10T07:53:57;19.17;;;4.43;;
17173;SDS011;8702;48.130;-1.696;2023-05-10T07:56:24;22.23;;;4.17;;
17173;SDS011;8702;48.130;-1.696;2023-05-10T07:58:54;19.73;;;4.27;;
17173;SDS011;8702;48.130;-1.696;2023-05-10T08:01:23;14.53;;;4.57;;
17173;SDS011;8702;48.130;-1.696;2023-05-10T08:03:53;17.43;;;4.20;;
17173;SDS011;8702;48.130;-1.696;2023-05-10T08:06:20;13.57;;;4.23;;
17173;SDS011;8702;48.130;-1.696;2023-05-10T08:08:47;13.63;;;4.90;;
17173;SDS011;8702;48.130;-1.696;2023-05-10T08:11:15;14.63;;;4.17;;
17173;SDS011;8702;48.130;-1.696;2023-05-10T08:13:43;15.10;;;4.70;;
17173;SDS011;8702;48.130;-1.696;2023-05-10T08:16:10;13.87;;;4.20;;
17173;SDS011;8702;48.130;-1.696;2023-05-10T08:18:38;15.10;;;4.23;;
17173;SDS011;8702;48.130;-1.696;2023-05-10T08:21:05;18.33;;;4.90;;
17173;SDS011;8702;48.130;-1.696;2023-05-10T08:23:32;15.27;;;3.77;;
17173;SDS011;8702;48.130;-1.696;2023-05-10T08:25:59;19.13;;;5.10;;
17173;SDS011;8702;48.130;-1.696;2023-05-10T08:28:29;19.20;;;4.13;;
17173;SDS011;8702;48.130;-1.696;2023-05-10T08:30:56;14.70;;;3.97;;
17173;SDS011;8702;48.130;-1.696;2023-05-10T08:33:23;16.33;;;4.47;;
17173;SDS011;8702;48.130;-1.696;2023-05-10T08:35:51;17.40;;;4.43;;
17173;SDS011;8702;48.130;-1.696;2023-05-10T08:38:18;14.40;;;3.73;;
17173;SDS011;8702;48.130;-1.696;2023-05-10T08:40:45;11.37;;;3.50;;
17173;SDS011;8702;48.130;-1.696;2023-05-10T08:43:15;14.03;;;3.73;;
17173;SDS011;8702;48.130;-1.696;2023-05-10T08:45:43;13.57;;;3.90;;
17173;SDS011;8702;48.130;-1.696;2023-05-10T08:48:11;12.40;;;3.53;;
17173;SDS011;8702;48.130;-1.696;2023-05-10T08:50:40;15.53;;;4.00;;
17173;SDS011;8702;48.130;-1.696;2023-05-10T08:53:11;14.97;;;3.77;;
17173;SDS011;8702;48.130;-1.696;2023-05-10T08:55:39;14.47;;;3.60;;
17173;SDS011;8702;48.130;-1.696;2023-05-10T08:58:08;15.63;;;3.47;;
17173;SDS011;8702;48.130;-1.696;2023-05-10T09:00:35;9.63;;;2.93;;
17173;SDS011;8702;48.130;-1.696;2023-05-10T09:03:03;10.07;;;2.83;;
17173;SDS011;8702;48.130;-1.696;2023-05-10T09:05:32;9.33;;;3.10;;
17173;SDS011;8702;48.130;-1.696;2023-05-10T09:07:59;9.50;;;3.13;;
17173;SDS011;8702;48.130;-1.696;2023-05-10T09:10:28;9.77;;;3.27;;
17173;SDS011;8702;48.130;-1.696;2023-05-10T09:12:57;11.13;;;3.60;;
17173;SDS011;8702;48.130;-1.696;2023-05-10T09:15:24;11.87;;;3.73;;
17173;SDS011;8702;48.130;-1.696;2023-05-10T09:17:51;11.80;;;3.60;;
17173;SDS011;8702;48.130;-1.696;2023-05-10T09:20:18;12.37;;;3.83;;
17173;SDS011;8702;48.130;-1.696;2023-05-10T09:22:45;12.30;;;3.27;;
17173;SDS011;8702;48.130;-1.696;2023-05-10T09:25:13;7.97;;;2.70;;
17173;SDS011;8702;48.130;-1.696;2023-05-10T09:27:44;10.80;;;3.37;;
17173;SDS011;8702;48.130;-1.696;2023-05-10T09:30:15;11.97;;;3.23;;
17173;SDS011;8702;48.130;-1.696;2023-05-10T09:32:43;9.73;;;2.90;;
17173;SDS011;8702;48.130;-1.696;2023-05-10T09:35:11;12.20;;;3.40;;
17173;SDS011;8702;48.130;-1.696;2023-05-10T09:37:39;15.73;;;3.87;;
17173;SDS011;8702;48.130;-1.696;2023-05-10T09:40:08;9.73;;;3.00;;
17173;SDS011;8702;48.130;-1.696;2023-05-10T09:42:38;14.23;;;3.30;;
17173;SDS011;8702;48.130;-1.696;2023-05-10T09:45:09;14.23;;;3.80;;
17173;SDS011;8702;48.130;-1.696;2023-05-10T09:47:36;12.60;;;3.50;;
17173;SDS011;8702;48.130;-1.696;2023-05-10T09:50:04;11.83;;;3.67;;
17173;SDS011;8702;48.130;-1.696;2023-05-10T09:52:36;14.60;;;4.20;;
17173;SDS011;8702;48.130;-1.696;2023-05-10T09:55:13;10.33;;;3.87;;
17173;SDS011;8702;48.130;-1.696;2023-05-10T09:57:40;10.97;;;3.33;;
17173;SDS011;8702;48.130;-1.696;2023-05-10T10:00:08;9.50;;;3.33;;
17173;SDS011;8702;48.130;-1.696;2023-05-10T10:02:42;13.03;;;3.67;;
17173;SDS011;8702;48.130;-1.696;2023-05-10T10:05:11;10.03;;;3.03;;
17173;SDS011;8702;48.130;-1.696;2023-05-10T10:07:38;10.97;;;3.63;;
17173;SDS011;8702;48.130;-1.696;2023-05-10T10:10:05;10.63;;;3.50;;
17173;SDS011;8702;48.130;-1.696;2023-05-10T10:12:36;7.47;;;3.07;;
17173;SDS011;8702;48.130;-1.696;2023-05-10T10:15:03;11.47;;;3.20;;
17173;SDS011;8702;48.130;-1.696;2023-05-10T10:17:33;10.03;;;3.47;;
17173;SDS011;8702;48.130;-1.696;2023-05-10T10:20:03;8.60;;;2.57;;
17173;SDS011;8702;48.130;-1.696;2023-05-10T10:22:31;9.73;;;3.03;;
17173;SDS011;8702;48.130;-1.696;2023-05-10T10:24:57;9.43;;;3.30;;
17173;SDS011;8702;48.130;-1.696;2023-05-10T10:27:28;8.37;;;3.03;;
17173;SDS011;8702;48.130;-1.696;2023-05-10T10:30:06;6.60;;;2.33;;
17173;SDS011;8702;48.130;-1.696;2023-05-10T10:32:54;6.23;;;2.20;;
17173;SDS011;8702;48.130;-1.696;2023-05-10T10:35:32;8.93;;;2.53;;
17173;SDS011;8702;48.130;-1.696;2023-05-10T10:38:00;5.73;;;2.07;;
17173;SDS011;8702;48.130;-1.696;2023-05-10T10:40:30;7.40;;;2.33;;
17173;SDS011;8702;48.130;-1.696;2023-05-10T10:42:58;6.80;;;2.10;;
17173;SDS011;8702;48.130;-1.696;2023-05-10T10:45:48;6.50;;;2.10;;
17173;SDS011;8702;48.130;-1.696;2023-05-10T10:48:37;8.60;;;2.50;;
17173;SDS011;8702;48.130;-1.696;2023-05-10T10:51:05;8.23;;;2.80;;
17173;SDS011;8702;48.130;-1.696;2023-05-10T10:53:32;6.80;;;2.80;;
17173;SDS011;8702;48.130;-1.696;2023-05-10T10:56:02;5.83;;;2.27;;
17173;SDS011;8702;48.130;-1.696;2023-05-10T10:58:33;6.83;;;2.47;;
17173;SDS011;8702;48.130;-1.696;2023-05-10T11:01:13;5.83;;;1.67;;
17173;SDS011;8702;48.130;-1.696;2023-05-10T11:03:55;5.20;;;1.60;;
17173;SDS011;8702;48.130;-1.696;2023-05-10T11:06:45;4.03;;;1.53;;
17173;SDS011;8702;48.130;-1.696;2023-05-10T11:09:12;4.87;;;1.90;;
17173;SDS011;8702;48.130;-1.696;2023-05-10T11:11:48;5.07;;;2.07;;
17173;SDS011;8702;48.130;-1.696;2023-05-10T11:14:19;8.53;;;2.07;;
17173;SDS011;8702;48.130;-1.696;2023-05-10T11:16:47;5.97;;;1.73;;
17173;SDS011;8702;48.130;-1.696;2023-05-10T11:19:16;6.33;;;2.07;;
17173;SDS011;8702;48.130;-1.696;2023-05-10T11:21:44;6.30;;;2.00;;
17173;SDS011;8702;48.130;-1.696;2023-05-10T11:24:16;7.67;;;2.23;;
17173;SDS011;8702;48.130;-1.696;2023-05-10T11:26:45;4.97;;;1.80;;
17173;SDS011;8702;48.130;-1.696;2023-05-10T11:29:12;7.03;;;2.03;;
17173;SDS011;8702;48.130;-1.696;2023-05-10T11:31:42;7.13;;;1.87;;
17173;SDS011;8702;48.130;-1.696;2023-05-10T11:34:11;4.13;;;1.70;;
17173;SDS011;8702;48.130;-1.696;2023-05-10T11:36:50;4.33;;;1.80;;
17173;SDS011;8702;48.130;-1.696;2023-05-10T11:39:19;3.03;;;1.50;;
17173;SDS011;8702;48.130;-1.696;2023-05-10T11:41:47;3.63;;;1.60;;
17173;SDS011;8702;48.130;-1.696;2023-05-10T11:44:14;4.03;;;1.63;;
17173;SDS011;8702;48.130;-1.696;2023-05-10T11:46:42;4.27;;;1.60;;
17173;SDS011;8702;48.130;-1.696;2023-05-10T11:49:09;3.57;;;1.37;;
17173;SDS011;8702;48.130;-1.696;2023-05-10T11:51:39;4.23;;;1.47;;
17173;SDS011;8702;48.130;-1.696;2023-05-10T11:54:08;6.10;;;1.90;;
17173;SDS011;8702;48.130;-1.696;2023-05-10T11:56:37;7.27;;;2.20;;
17173;SDS011;8702;48.130;-1.696;2023-05-10T11:59:04;5.13;;;1.80;;
17173;SDS011;8702;48.130;-1.696;2023-05-10T12:01:31;6.07;;;1.93;;
17173;SDS011;8702;48.130;-1.696;2023-05-10T12:03:58;7.47;;;1.97;;
17173;SDS011;8702;48.130;-1.696;2023-05-10T12:06:26;5.47;;;1.87;;
17173;SDS011;8702;48.130;-1.696;2023-05-10T12:08:57;5.30;;;1.87;;
17173;SDS011;8702;48.130;-1.696;2023-05-10T12:11:25;9.00;;;1.80;;
17173;SDS011;8702;48.130;-1.696;2023-05-10T12:13:54;5.23;;;1.67;;
17173;SDS011;8702;48.130;-1.696;2023-05-10T12:16:22;4.53;;;1.63;;
17173;SDS011;8702;48.130;-1.696;2023-05-10T12:18:50;6.03;;;1.90;;
17173;SDS011;8702;48.130;-1.696;2023-05-10T12:21:18;6.73;;;2.23;;
17173;SDS011;8702;48.130;-1.696;2023-05-10T12:23:46;5.03;;;1.60;;
17173;SDS011;8702;48.130;-1.696;2023-05-10T12:26:16;5.27;;;1.87;;
17173;SDS011;8702;48.130;-1.696;2023-05-10T12:28:43;4.73;;;1.87;;
17173;SDS011;8702;48.130;-1.696;2023-05-10T12:31:10;6.30;;;2.27;;
17173;SDS011;8702;48.130;-1.696;2023-05-10T12:33:38;5.17;;;1.90;;
17173;SDS011;8702;48.130;-1.696;2023-05-10T12:36:08;6.07;;;2.00;;
17173;SDS011;8702;48.130;-1.696;2023-05-10T12:38:35;9.30;;;2.77;;
17173;SDS011;8702;48.130;-1.696;2023-05-10T12:41:04;6.83;;;2.20;;
17173;SDS011;8702;48.130;-1.696;2023-05-10T12:43:34;4.13;;;1.90;;
17173;SDS011;8702;48.130;-1.696;2023-05-10T12:46:05;6.00;;;2.17;;
17173;SDS011;8702;48.130;-1.696;2023-05-10T12:48:33;6.43;;;2.10;;
17173;SDS011;8702;48.130;-1.696;2023-05-10T12:51:00;6.53;;;2.17;;
17173;SDS011;8702;48.130;-1.696;2023-05-10T12:53:27;7.47;;;2.27;;
17173;SDS011;8702;48.130;-1.696;2023-05-10T12:55:54;6.30;;;2.30;;
17173;SDS011;8702;48.130;-1.696;2023-05-10T12:58:21;5.73;;;2.30;;
17173;SDS011;8702;48.130;-1.696;2023-05-10T13:00:49;5.57;;;2.30;;
17173;SDS011;8702;48.130;-1.696;2023-05-10T13:03:17;5.97;;;2.03;;
17173;SDS011;8702;48.130;-1.696;2023-05-10T13:05:44;8.30;;;2.13;;
17173;SDS011;8702;48.130;-1.696;2023-05-10T13:08:12;5.97;;;1.90;;
17173;SDS011;8702;48.130;-1.696;2023-05-10T13:10:39;6.40;;;2.30;;
17173;SDS011;8702;48.130;-1.696;2023-05-10T13:13:06;5.47;;;2.13;;
17173;SDS011;8702;48.130;-1.696;2023-05-10T13:15:33;5.03;;;1.70;;
17173;SDS011;8702;48.130;-1.696;2023-05-10T13:18:02;6.03;;;2.13;;
17173;SDS011;8702;48.130;-1.696;2023-05-10T13:20:29;5.10;;;2.07;;
17173;SDS011;8702;48.130;-1.696;2023-05-10T13:22:59;4.67;;;1.90;;
17173;SDS011;8702;48.130;-1.696;2023-05-10T13:25:27;8.37;;;2.40;;
17173;SDS011;8702;48.130;-1.696;2023-05-10T13:27:55;7.13;;;2.10;;
17173;SDS011;8702;48.130;-1.696;2023-05-10T13:30:22;5.63;;;2.17;;
17173;SDS011;8702;48.130;-1.696;2023-05-10T13:32:49;9.67;;;2.10;;
17173;SDS011;8702;48.130;-1.696;2023-05-10T13:35:17;6.17;;;2.17;;
17173;SDS011;8702;48.130;-1.696;2023-05-10T13:37:44;6.93;;;1.97;;
17173;SDS011;8702;48.130;-1.696;2023-05-10T13:40:11;5.53;;;1.83;;
17173;SDS011;8702;48.130;-1.696;2023-05-10T13:42:38;6.60;;;2.07;;
17173;SDS011;8702;48.130;-1.696;2023-05-10T13:45:06;3.63;;;1.53;;
17173;SDS011;8702;48.130;-1.696;2023-05-10T13:47:33;4.13;;;1.27;;
17173;SDS011;8702;48.130;-1.696;2023-05-10T13:50:00;6.87;;;1.57;;
17173;SDS011;8702;48.130;-1.696;2023-05-10T13:52:30;4.47;;;1.60;;
17173;SDS011;8702;48.130;-1.696;2023-05-10T13:54:57;4.90;;;1.70;;
17173;SDS011;8702;48.130;-1.696;2023-05-10T13:57:24;4.90;;;1.50;;
17173;SDS011;8702;48.130;-1.696;2023-05-10T13:59:55;3.70;;;1.77;;
17173;SDS011;8702;48.130;-1.696;2023-05-10T14:02:22;4.77;;;1.50;;
17173;SDS011;8702;48.130;-1.696;2023-05-10T14:04:49;6.43;;;1.70;;
17173;SDS011;8702;48.130;-1.696;2023-05-10T14:07:16;5.47;;;1.60;;
17173;SDS011;8702;48.130;-1.696;2023-05-10T14:09:45;9.90;;;1.60;;
17173;SDS011;8702;48.130;-1.696;2023-05-10T14:12:11;4.47;;;1.53;;
17173;SDS011;8702;48.130;-1.696;2023-05-10T14:14:39;7.67;;;2.27;;
17173;SDS011;8702;48.130;-1.696;2023-05-10T14:17:06;7.80;;;2.83;;
17173;SDS011;8702;48.130;-1.696;2023-05-10T14:19:33;6.10;;;1.77;;
17173;SDS011;8702;48.130;-1.696;2023-05-10T14:22:00;7.77;;;2.17;;
17173;SDS011;8702;48.130;-1.696;2023-05-10T14:24:27;5.73;;;1.87;;
17173;SDS011;8702;48.130;-1.696;2023-05-10T14:26:56;4.50;;;2.23;;
17173;SDS011;8702;48.130;-1.696;2023-05-10T14:29:23;4.23;;;1.57;;
17173;SDS011;8702;48.130;-1.696;2023-05-10T14:31:50;5.63;;;1.60;;
17173;SDS011;8702;48.130;-1.696;2023-05-10T14:34:17;6.73;;;1.87;;
17173;SDS011;8702;48.130;-1.696;2023-05-10T14:36:45;11.40;;;2.40;;
17173;SDS011;8702;48.130;-1.696;2023-05-10T14:39:11;4.97;;;1.80;;
17173;SDS011;8702;48.130;-1.696;2023-05-10T14:41:38;6.20;;;2.03;;
17173;SDS011;8702;48.130;-1.696;2023-05-10T14:44:09;4.63;;;1.60;;
17173;SDS011;8702;48.130;-1.696;2023-05-10T14:46:36;5.67;;;2.20;;
17173;SDS011;8702;48.130;-1.696;2023-05-10T14:49:03;4.90;;;1.43;;
17173;SDS011;8702;48.130;-1.696;2023-05-10T14:51:30;7.50;;;1.80;;
17173;SDS011;8702;48.130;-1.696;2023-05-10T14:53:57;4.87;;;1.50;;